Time;durP1;ratioP1;P1;durP2;ratioP2;P2;SDS_P1;SDS_P2;PMS_P1;PMS_P2;Temp;Humidity;BMP_temperature;BMP_pressure;BME280_temperature;BME280_humidity;BME280_pressure;Samples;Min_cycle;Max_cycle;Signal;HPM_P1;HPM_P2
2021/11/18 00:00:21;;;;;;;27.13;19.67;;;;;;;;;;5055512;28;20033;-75
2021/11/18 00:02:49;;;;;;;25.13;18.48;;;;;;;;;;5055001;28;20468;-76
2021/11/18 00:05:16;;;;;;;24.88;18.17;;;;;;;;;;5054075;28;20133;-76
2021/11/18 00:07:43;;;;;;;24.02;18.33;;;;;;;;;;5055171;28;20492;-76
2021/11/18 00:10:11;;;;;;;20.70;16.98;;;;;;;;;;5055242;28;20025;-75
2021/11/18 00:12:37;;;;;;;22.17;16.80;;;;;;;;;;5055011;28;20058;-75
2021/11/18 00:15:03;;;;;;;24.45;17.83;;;;;;;;;;5053832;28;20036;-75
2021/11/18 00:17:29;;;;;;;32.20;21.65;;;;;;;;;;5055162;28;20061;-77
2021/11/18 00:19:55;;;;;;;31.17;22.30;;;;;;;;;;5054876;28;20037;-76
2021/11/18 00:22:21;;;;;;;37.35;28.80;;;;;;;;;;5053657;28;20068;-76
2021/11/18 00:24:48;;;;;;;33.05;24.35;;;;;;;;;;5053537;28;20495;-76
2021/11/18 00:27:14;;;;;;;37.30;25.92;;;;;;;;;;5054961;28;20082;-74
2021/11/18 00:29:40;;;;;;;33.45;22.60;;;;;;;;;;5054873;28;20029;-75
2021/11/18 00:32:06;;;;;;;31.38;21.08;;;;;;;;;;5053746;28;20025;-74
2021/11/18 00:34:32;;;;;;;33.70;21.20;;;;;;;;;;5054996;28;20028;-75
2021/11/18 00:36:58;;;;;;;32.03;21.38;;;;;;;;;;5054595;28;20479;-77
2021/11/18 00:39:25;;;;;;;33.10;23.05;;;;;;;;;;5053624;28;20028;-76
2021/11/18 00:41:51;;;;;;;33.28;23.52;;;;;;;;;;5054415;28;20112;-77
2021/11/18 00:44:17;;;;;;;29.13;21.17;;;;;;;;;;5053500;28;20396;-77
2021/11/18 00:46:43;;;;;;;32.25;24.67;;;;;;;;;;5054401;28;20033;-74
2021/11/18 00:49:10;;;;;;;33.72;24.70;;;;;;;;;;5054645;28;20056;-75
2021/11/18 00:51:37;;;;;;;39.20;30.25;;;;;;;;;;5054665;28;20043;-77
2021/11/18 00:54:05;;;;;;;42.70;31.30;;;;;;;;;;5054158;28;20021;-75
2021/11/18 00:56:31;;;;;;;43.20;34.08;;;;;;;;;;5054576;28;20068;-75
2021/11/18 00:58:58;;;;;;;36.00;26.98;;;;;;;;;;5053038;28;20025;-77
2021/11/18 01:01:29;;;;;;;33.67;25.17;;;;;;;;;;5054329;28;20063;-75
2021/11/18 01:03:55;;;;;;;32.47;24.42;;;;;;;;;;5052872;28;20024;-74
2021/11/18 01:06:22;;;;;;;41.05;30.27;;;;;;;;;;5053899;28;20040;-74
2021/11/18 01:08:48;;;;;;;33.35;23.90;;;;;;;;;;5053992;28;20361;-77
2021/11/18 01:11:16;;;;;;;29.73;18.98;;;;;;;;;;5054252;28;20476;-77
2021/11/18 01:13:43;;;;;;;23.15;17.90;;;;;;;;;;5053991;28;20029;-76
2021/11/18 01:16:10;;;;;;;24.15;16.88;;;;;;;;;;5053934;28;20037;-76
2021/11/18 01:18:36;;;;;;;24.63;16.65;;;;;;;;;;5053933;28;20048;-74
2021/11/18 01:21:03;;;;;;;27.30;19.60;;;;;;;;;;5053557;28;20409;-75
2021/11/18 01:23:32;;;;;;;21.98;17.35;;;;;;;;;;5054040;28;20029;-75
2021/11/18 01:25:58;;;;;;;21.90;17.05;;;;;;;;;;5053652;28;20033;-77
2021/11/18 01:28:25;;;;;;;23.05;18.33;;;;;;;;;;5053891;28;20109;-77
2021/11/18 01:30:51;;;;;;;30.83;25.40;;;;;;;;;;5053660;28;20052;-75
2021/11/18 01:33:17;;;;;;;31.58;24.42;;;;;;;;;;5052395;28;20036;-75
2021/11/18 01:35:45;;;;;;;29.75;21.50;;;;;;;;;;5052378;28;20411;-77
2021/11/18 01:38:11;;;;;;;22.75;18.20;;;;;;;;;;5053589;28;20040;-76
2021/11/18 01:40:39;;;;;;;24.50;17.23;;;;;;;;;;5053678;28;20472;-76
2021/11/18 01:43:09;;;;;;;26.02;18.35;;;;;;;;;;5052062;28;20033;-75
2021/11/18 01:45:35;;;;;;;28.95;21.75;;;;;;;;;;5053501;28;20028;-76
2021/11/18 01:48:02;;;;;;;30.23;25.20;;;;;;;;;;5051963;28;20078;-75
2021/11/18 01:50:29;;;;;;;29.10;22.67;;;;;;;;;;5053485;28;20029;-75
2021/11/18 01:52:56;;;;;;;36.35;26.80;;;;;;;;;;5051901;28;20102;-75
2021/11/18 01:55:22;;;;;;;26.85;20.40;;;;;;;;;;5053332;28;20025;-76
2021/11/18 01:57:49;;;;;;;22.73;17.73;;;;;;;;;;5051940;28;20029;-76
2021/11/18 02:00:18;;;;;;;24.42;18.63;;;;;;;;;;5053306;28;20464;-75
2021/11/18 02:02:46;;;;;;;25.48;19.38;;;;;;;;;;5053200;28;20029;-74
2021/11/18 02:05:31;;;;;;;30.80;21.48;;;;;;;;;;5051789;28;20476;-75
2021/11/18 02:07:58;;;;;;;29.02;20.08;;;;;;;;;;5051816;28;20111;-75
2021/11/18 02:10:30;;;;;;;31.10;20.90;;;;;;;;;;5053325;28;20021;-76
2021/11/18 02:12:57;;;;;;;28.73;21.20;;;;;;;;;;5053281;28;20060;-76
2021/11/18 02:15:28;;;;;;;25.30;20.00;;;;;;;;;;5052814;28;20052;-75
2021/11/18 02:17:56;;;;;;;25.77;19.90;;;;;;;;;;5052206;28;20035;-76
2021/11/18 02:20:24;;;;;;;24.65;18.80;;;;;;;;;;5051310;28;20025;-76
2021/11/18 02:22:51;;;;;;;30.42;20.63;;;;;;;;;;5052733;28;20492;-76
2021/11/18 02:25:17;;;;;;;24.90;19.25;;;;;;;;;;5052749;28;20025;-76
2021/11/18 02:27:43;;;;;;;24.90;18.88;;;;;;;;;;5052769;28;20464;-75
2021/11/18 02:30:10;;;;;;;25.33;19.08;;;;;;;;;;5051599;28;20099;-77
2021/11/18 02:32:39;;;;;;;27.42;19.63;;;;;;;;;;5052444;28;20025;-76
2021/11/18 02:35:11;;;;;;;24.60;18.38;;;;;;;;;;5052523;28;20021;-77
2021/11/18 02:37:37;;;;;;;24.73;18.73;;;;;;;;;;5052385;28;20033;-75
2021/11/18 02:40:04;;;;;;;26.83;18.13;;;;;;;;;;5052453;28;20086;-75
2021/11/18 02:42:30;;;;;;;26.48;19.02;;;;;;;;;;5052100;28;20029;-73
2021/11/18 02:44:57;;;;;;;28.70;19.67;;;;;;;;;;5052753;28;20357;-76
2021/11/18 02:47:23;;;;;;;26.88;18.27;;;;;;;;;;5050863;28;20476;-75
2021/11/18 02:49:51;;;;;;;26.27;19.95;;;;;;;;;;5052497;28;20040;-76
2021/11/18 02:52:19;;;;;;;26.65;18.77;;;;;;;;;;5051096;28;20107;-76
2021/11/18 02:54:45;;;;;;;27.88;20.70;;;;;;;;;;5051037;28;20492;-75
2021/11/18 02:57:12;;;;;;;24.83;17.92;;;;;;;;;;5052269;28;20460;-75
2021/11/18 02:59:38;;;;;;;24.65;18.05;;;;;;;;;;5051919;28;20464;-74
2021/11/18 03:02:05;;;;;;;31.02;23.83;;;;;;;;;;5052172;28;20104;-75
2021/11/18 03:04:32;;;;;;;31.52;24.90;;;;;;;;;;5051865;28;20033;-75
2021/11/18 03:07:00;;;;;;;34.88;23.42;;;;;;;;;;5050870;28;20025;-75
2021/11/18 03:09:27;;;;;;;34.63;25.02;;;;;;;;;;5050625;28;20112;-76
2021/11/18 03:11:53;;;;;;;28.25;21.98;;;;;;;;;;5052143;28;20017;-76
2021/11/18 03:14:20;;;;;;;28.05;18.52;;;;;;;;;;5051785;28;20052;-77
2021/11/18 03:16:46;;;;;;;26.45;19.77;;;;;;;;;;5051850;28;20025;-76
2021/11/18 03:19:13;;;;;;;27.20;19.65;;;;;;;;;;5052152;28;20059;-76
2021/11/18 03:21:40;;;;;;;27.17;19.77;;;;;;;;;;5050097;28;20061;-74
2021/11/18 03:24:06;;;;;;;25.00;18.50;;;;;;;;;;5051566;28;20033;-77
2021/11/18 03:26:34;;;;;;;26.38;19.30;;;;;;;;;;5050254;28;20112;-76
2021/11/18 03:29:01;;;;;;;24.58;19.23;;;;;;;;;;5052958;28;20021;-76
2021/11/18 03:31:28;;;;;;;26.83;19.63;;;;;;;;;;5054336;28;20028;-76
2021/11/18 03:33:56;;;;;;;28.83;19.67;;;;;;;;;;5056061;28;20033;-76
2021/11/18 03:36:23;;;;;;;23.63;19.15;;;;;;;;;;5055807;28;20115;-74
2021/11/18 03:38:51;;;;;;;25.73;19.15;;;;;;;;;;5055933;28;20462;-75
2021/11/18 03:41:17;;;;;;;26.27;20.30;;;;;;;;;;5055754;28;20480;-76
2021/11/18 03:43:46;;;;;;;23.00;18.95;;;;;;;;;;5055656;28;20079;-76
2021/11/18 03:46:13;;;;;;;27.58;20.63;;;;;;;;;;5055875;28;20033;-75
2021/11/18 03:48:39;;;;;;;27.33;21.00;;;;;;;;;;5055431;28;20021;-77
2021/11/18 03:51:07;;;;;;;25.35;18.90;;;;;;;;;;5055822;28;20029;-75
2021/11/18 03:53:34;;;;;;;25.85;20.50;;;;;;;;;;5054215;28;20124;-77
2021/11/18 03:56:04;;;;;;;27.30;21.83;;;;;;;;;;5054315;28;20029;-74
2021/11/18 03:58:30;;;;;;;28.65;21.85;;;;;;;;;;5055337;28;20033;-75
2021/11/18 04:00:57;;;;;;;27.65;20.85;;;;;;;;;;5054173;28;20499;-75
2021/11/18 04:03:23;;;;;;;33.05;24.92;;;;;;;;;;5055375;28;20025;-74
2021/11/18 04:05:49;;;;;;;31.90;24.35;;;;;;;;;;5055614;28;20417;-74
2021/11/18 04:08:15;;;;;;;44.40;28.88;;;;;;;;;;5054083;28;20024;-76
2021/11/18 04:10:42;;;;;;;53.17;33.25;;;;;;;;;;5053802;28;20029;-77
2021/11/18 04:13:09;;;;;;;50.38;31.27;;;;;;;;;;5055264;28;20028;-77
2021/11/18 04:15:35;;;;;;;65.32;36.92;;;;;;;;;;5055003;28;20037;-75
2021/11/18 04:18:02;;;;;;;45.90;29.75;;;;;;;;;;5055285;28;20102;-76
2021/11/18 04:20:29;;;;;;;35.75;25.40;;;;;;;;;;5054841;28;20118;-75
2021/11/18 04:22:55;;;;;;;33.28;21.67;;;;;;;;;;5054966;28;20450;-76
2021/11/18 04:25:36;;;;;;;28.92;20.63;;;;;;;;;;5055100;28;20780;-74
2021/11/18 04:28:03;;;;;;;23.60;18.52;;;;;;;;;;5053750;28;20506;-77
2021/11/18 04:30:48;;;;;;;28.80;20.08;;;;;;;;;;5054670;28;20399;-75
2021/11/18 04:33:14;;;;;;;;;;;;;;;;;;5055111;28;20362;-75
2021/11/18 04:35:40;;;;;;;24.83;19.10;;;;;;;;;;5055010;28;19987;-77
2021/11/18 04:38:06;;;;;;;24.48;19.17;;;;;;;;;;5054375;28;20108;-75
2021/11/18 04:40:33;;;;;;;22.83;17.98;;;;;;;;;;5053924;28;20049;-76
2021/11/18 04:43:00;;;;;;;23.98;17.48;;;;;;;;;;5054825;28;20480;-76
2021/11/18 04:45:26;;;;;;;22.85;18.13;;;;;;;;;;5054625;28;20029;-77
2021/11/18 04:47:52;;;;;;;23.90;18.95;;;;;;;;;;5054644;28;20029;-77
2021/11/18 04:50:19;;;;;;;25.23;18.30;;;;;;;;;;5054490;28;20021;-77
2021/11/18 04:52:46;;;;;;;23.00;18.88;;;;;;;;;;5053984;28;20036;-75
2021/11/18 04:55:13;;;;;;;26.50;18.90;;;;;;;;;;5054154;28;20029;-75
2021/11/18 04:57:40;;;;;;;24.83;17.40;;;;;;;;;;5054352;28;20025;-74
2021/11/18 05:00:09;;;;;;;27.25;19.70;;;;;;;;;;5054161;28;20029;-76
2021/11/18 05:02:36;;;;;;;28.85;23.33;;;;;;;;;;5054366;28;20400;-75
2021/11/18 05:05:03;;;;;;;27.85;23.42;;;;;;;;;;5052991;28;20033;-77
2021/11/18 05:07:29;;;;;;;73.43;50.25;;;;;;;;;;5053836;28;20025;-76
2021/11/18 05:09:55;;;;;;;52.80;38.08;;;;;;;;;;5054266;28;20033;-75
2021/11/18 05:12:21;;;;;;;48.70;32.22;;;;;;;;;;5053855;28;20024;-75
2021/11/18 05:14:47;;;;;;;30.25;24.08;;;;;;;;;;5054249;28;20171;-75
2021/11/18 05:17:13;;;;;;;29.58;23.80;;;;;;;;;;5053744;28;20029;-76
2021/11/18 05:19:40;;;;;;;25.30;20.10;;;;;;;;;;5052542;28;20396;-77
2021/11/18 05:22:06;;;;;;;22.88;19.50;;;;;;;;;;5053778;28;20061;-76
2021/11/18 05:24:32;;;;;;;44.17;33.20;;;;;;;;;;5052479;28;20025;-77
2021/11/18 05:26:59;;;;;;;82.40;59.80;;;;;;;;;;5053899;28;20128;-75
2021/11/18 05:29:25;;;;;;;87.30;62.28;;;;;;;;;;5053628;28;20118;-75
2021/11/18 05:31:51;;;;;;;82.00;55.88;;;;;;;;;;5052627;28;20064;-77
2021/11/18 05:34:17;;;;;;;91.00;72.25;;;;;;;;;;5052089;28;20498;-75
2021/11/18 05:36:44;;;;;;;51.20;40.40;;;;;;;;;;5053709;28;20066;-74
2021/11/18 05:39:10;;;;;;;45.28;34.15;;;;;;;;;;5052377;28;20033;-75
2021/11/18 05:41:36;;;;;;;40.05;30.58;;;;;;;;;;5053157;28;20080;-80
2021/11/18 05:44:03;;;;;;;48.97;34.33;;;;;;;;;;5053701;28;20075;-76
2021/11/18 05:46:30;;;;;;;48.17;34.38;;;;;;;;;;5053342;28;20380;-77
2021/11/18 05:48:56;;;;;;;49.92;37.20;;;;;;;;;;5052317;28;20094;-74
2021/11/18 05:51:23;;;;;;;47.70;32.58;;;;;;;;;;5053529;28;20032;-81
2021/11/18 05:53:52;;;;;;;44.85;31.40;;;;;;;;;;5052438;28;20029;-78
2021/11/18 05:56:21;;;;;;;36.25;25.85;;;;;;;;;;5053306;28;20056;-79
2021/11/18 05:58:48;;;;;;;33.05;23.60;;;;;;;;;;5053572;28;20059;-79
2021/11/18 06:01:16;;;;;;;28.27;22.55;;;;;;;;;;5042055;28;20089;-81
2021/11/18 06:03:42;;;;;;;33.17;25.50;;;;;;;;;;5032115;28;20036;-76
2021/11/18 06:06:09;;;;;;;35.70;26.83;;;;;;;;;;5038020;28;20491;-80
2021/11/18 06:08:36;;;;;;;40.70;29.80;;;;;;;;;;5053406;28;20049;-82
2021/11/18 06:11:03;;;;;;;37.60;28.02;;;;;;;;;;5051992;28;20063;-81
2021/11/18 06:13:29;;;;;;;33.65;25.38;;;;;;;;;;5052904;28;20392;-80
2021/11/18 06:15:55;;;;;;;38.47;28.00;;;;;;;;;;5041700;28;20092;-77
2021/11/18 06:18:22;;;;;;;111.40;38.85;;;;;;;;;;5033076;28;20031;-79
2021/11/18 06:20:48;;;;;;;87.00;40.78;;;;;;;;;;5035318;28;20075;-82
2021/11/18 06:23:15;;;;;;;67.00;41.75;;;;;;;;;;5052765;28;20107;-77
2021/11/18 06:25:41;;;;;;;61.80;40.47;;;;;;;;;;5052371;28;20025;-79
2021/11/18 06:28:09;;;;;;;63.00;39.63;;;;;;;;;;5049786;28;20025;-75
2021/11/18 06:30:37;;;;;;;60.42;38.03;;;;;;;;;;5051306;28;20307;-74
2021/11/18 06:33:03;;;;;;;61.50;40.40;;;;;;;;;;5051958;28;20049;-75
2021/11/18 06:35:30;;;;;;;102.18;73.20;;;;;;;;;;5050485;28;20048;-70
2021/11/18 06:37:57;;;;;;;117.30;84.13;;;;;;;;;;5051681;28;20460;-75
2021/11/18 06:40:23;;;;;;;112.75;85.65;;;;;;;;;;5049711;28;20133;-74
2021/11/18 06:42:50;;;;;;;135.35;98.22;;;;;;;;;;5050892;28;20025;-75
2021/11/18 06:45:19;;;;;;;136.05;92.57;;;;;;;;;;5050896;28;20020;-75
2021/11/18 06:47:45;;;;;;;144.43;103.07;;;;;;;;;;5049602;28;20032;-77
2021/11/18 06:50:11;;;;;;;110.38;83.40;;;;;;;;;;5049934;28;20045;-75
2021/11/18 06:52:37;;;;;;;118.72;89.35;;;;;;;;;;5050847;28;20029;-74
2021/11/18 06:55:11;;;;;;;173.02;125.18;;;;;;;;;;5050969;28;20086;-77
2021/11/18 06:57:38;;;;;;;126.38;93.68;;;;;;;;;;5050082;28;20028;-75
2021/11/18 07:00:08;;;;;;;90.20;66.78;;;;;;;;;;5051054;28;20035;-75
2021/11/18 07:02:34;;;;;;;78.80;56.03;;;;;;;;;;5049434;28;20086;-76
2021/11/18 07:05:00;;;;;;;70.32;48.88;;;;;;;;;;5048867;28;20033;-78
2021/11/18 07:07:26;;;;;;;44.50;34.10;;;;;;;;;;5050572;28;20017;-76
2021/11/18 07:09:53;;;;;;;42.20;30.30;;;;;;;;;;5050020;28;20037;-78
2021/11/18 07:12:20;;;;;;;51.00;35.78;;;;;;;;;;5050884;28;20021;-77
2021/11/18 07:14:47;;;;;;;42.33;31.42;;;;;;;;;;5049523;28;20036;-78
2021/11/18 07:17:14;;;;;;;40.55;30.60;;;;;;;;;;5049575;28;20033;-75
2021/11/18 07:19:40;;;;;;;32.25;24.88;;;;;;;;;;5050199;28;21641;-78
2021/11/18 07:22:07;;;;;;;28.48;21.67;;;;;;;;;;5049644;28;20065;-77
2021/11/18 07:24:33;;;;;;;32.75;21.92;;;;;;;;;;5050675;28;20485;-77
2021/11/18 07:26:59;;;;;;;29.63;20.23;;;;;;;;;;5049534;28;20150;-75
2021/11/18 07:29:25;;;;;;;24.95;19.92;;;;;;;;;;5050517;28;20044;-78
2021/11/18 07:31:52;;;;;;;39.20;30.08;;;;;;;;;;5050109;28;20029;-76
2021/11/18 07:34:19;;;;;;;29.35;20.10;;;;;;;;;;5050977;28;20041;-75
2021/11/18 07:36:46;;;;;;;37.05;26.67;;;;;;;;;;5049342;28;20033;-77
2021/11/18 07:39:12;;;;;;;33.28;22.58;;;;;;;;;;5050127;28;20104;-75
2021/11/18 07:41:39;;;;;;;29.63;20.20;;;;;;;;;;5050900;28;20029;-76
2021/11/18 07:44:07;;;;;;;37.85;26.58;;;;;;;;;;5050148;28;20052;-77
2021/11/18 07:46:33;;;;;;;27.63;20.40;;;;;;;;;;5051045;28;20105;-76
2021/11/18 07:48:59;;;;;;;32.13;23.10;;;;;;;;;;5050841;28;20037;-75
2021/11/18 07:51:26;;;;;;;32.03;22.85;;;;;;;;;;5049930;28;20033;-77
2021/11/18 07:53:53;;;;;;;32.35;26.10;;;;;;;;;;5050283;28;20029;-75
2021/11/18 07:56:20;;;;;;;29.35;22.05;;;;;;;;;;5049486;28;20029;-76
2021/11/18 07:58:46;;;;;;;28.50;20.70;;;;;;;;;;5042217;28;20064;-76
2021/11/18 08:01:14;;;;;;;30.48;23.58;;;;;;;;;;5037944;28;20040;-75
2021/11/18 08:03:40;;;;;;;30.60;24.52;;;;;;;;;;5048801;28;20059;-76
2021/11/18 08:06:08;;;;;;;27.42;22.02;;;;;;;;;;5048041;28;20404;-75
2021/11/18 08:08:35;;;;;;;26.63;20.70;;;;;;;;;;5047540;28;20419;-75
2021/11/18 08:11:01;;;;;;;36.28;26.23;;;;;;;;;;5049761;28;20059;-75
2021/11/18 08:13:27;;;;;;;21.25;15.20;;;;;;;;;;5050104;28;20125;-76
2021/11/18 08:15:53;;;;;;;26.00;18.08;;;;;;;;;;5049224;28;20040;-76
2021/11/18 08:18:21;;;;;;;20.92;17.55;;;;;;;;;;5054236;28;20037;-75
2021/11/18 08:20:47;;;;;;;22.48;16.92;;;;;;;;;;5052724;28;20097;-77
2021/11/18 08:23:13;;;;;;;21.02;18.30;;;;;;;;;;5053695;28;20114;-76
2021/11/18 08:25:39;;;;;;;20.73;14.93;;;;;;;;;;5054067;28;20036;-75
2021/11/18 08:28:05;;;;;;;22.70;15.98;;;;;;;;;;5053259;28;20062;-79
2021/11/18 08:30:34;;;;;;;26.40;18.00;;;;;;;;;;5053875;28;20468;-76
2021/11/18 08:33:01;;;;;;;22.23;15.27;;;;;;;;;;5053788;28;20025;-79
2021/11/18 08:35:31;;;;;;;20.73;14.93;;;;;;;;;;5053312;28;20025;-74
2021/11/18 08:38:08;;;;;;;24.40;16.48;;;;;;;;;;5053348;28;20436;-76
2021/11/18 08:40:35;;;;;;;22.20;16.60;;;;;;;;;;5053746;28;20079;-74
2021/11/18 08:43:02;;;;;;;21.20;16.92;;;;;;;;;;5042019;28;20056;-75
2021/11/18 08:45:28;;;;;;;22.98;16.58;;;;;;;;;;5038211;28;20059;-75
2021/11/18 08:47:54;;;;;;;25.38;17.70;;;;;;;;;;5050795;28;20056;-73
2021/11/18 08:50:21;;;;;;;21.40;15.38;;;;;;;;;;5053374;28;20079;-76
2021/11/18 08:52:48;;;;;;;21.30;15.02;;;;;;;;;;5053591;28;20060;-74
2021/11/18 08:55:16;;;;;;;18.17;15.25;;;;;;;;;;5053160;28;20029;-75
2021/11/18 08:57:42;;;;;;;20.08;14.90;;;;;;;;;;5052036;28;20372;-75
2021/11/18 09:00:12;;;;;;;21.52;18.23;;;;;;;;;;5052633;28;20029;-75
2021/11/18 09:02:39;;;;;;;23.80;17.33;;;;;;;;;;5052677;28;20033;-74
2021/11/18 09:05:06;;;;;;;18.77;14.88;;;;;;;;;;5053230;28;20043;-75
2021/11/18 09:07:32;;;;;;;18.92;14.80;;;;;;;;;;5052448;28;20032;-74
2021/11/18 09:09:58;;;;;;;23.15;18.65;;;;;;;;;;5052789;28;20025;-73
2021/11/18 09:12:26;;;;;;;22.30;15.32;;;;;;;;;;5052068;28;20025;-76
2021/11/18 09:14:52;;;;;;;18.27;16.02;;;;;;;;;;5048153;28;20041;-80
2021/11/18 09:17:19;;;;;;;17.95;15.95;;;;;;;;;;5041659;28;20416;-77
2021/11/18 09:19:45;;;;;;;18.67;15.30;;;;;;;;;;5033455;28;20045;-77
2021/11/18 09:22:12;;;;;;;75.65;49.08;;;;;;;;;;5049617;28;20083;-77
2021/11/18 09:24:41;;;;;;;17.65;13.57;;;;;;;;;;5041667;28;20504;-76
2021/11/18 09:27:28;;;;;;;18.13;14.45;;;;;;;;;;5038499;28;20021;-75
2021/11/18 09:29:56;;;;;;;18.83;14.68;;;;;;;;;;5050401;28;20032;-74
2021/11/18 09:32:28;;;;;;;17.83;13.93;;;;;;;;;;5044903;28;20438;-76
2021/11/18 09:34:54;;;;;;;27.10;16.58;;;;;;;;;;5051323;28;20382;-76
2021/11/18 09:37:20;;;;;;;23.23;19.20;;;;;;;;;;5051698;28;20078;-76
2021/11/18 09:39:46;;;;;;;22.73;17.88;;;;;;;;;;5051384;28;20032;-78
2021/11/18 09:42:15;;;;;;;20.75;17.38;;;;;;;;;;5052351;28;20396;-74
2021/11/18 09:45:04;;;;;;;20.48;16.33;;;;;;;;;;5050985;28;20441;-76
2021/11/18 09:47:33;;;;;;;22.73;15.43;;;;;;;;;;5051429;28;20021;-77
2021/11/18 09:50:18;;;;;;;20.38;16.10;;;;;;;;;;5052452;28;20033;-81
2021/11/18 09:52:54;;;;;;;19.25;14.35;;;;;;;;;;5052067;28;20104;-77
2021/11/18 09:55:22;;;;;;;18.33;15.10;;;;;;;;;;5051988;28;20029;-75
2021/11/18 09:57:57;;;;;;;19.40;15.75;;;;;;;;;;5052251;28;20029;-74
2021/11/18 10:00:42;;;;;;;21.50;16.23;;;;;;;;;;5044051;28;20059;-75
2021/11/18 10:03:14;;;;;;;20.55;16.67;;;;;;;;;;5046367;28;20048;-75
2021/11/18 10:05:44;;;;;;;22.73;17.15;;;;;;;;;;5051640;28;20055;-77
2021/11/18 10:08:15;;;;;;;24.15;17.55;;;;;;;;;;5051471;28;20096;-74
2021/11/18 10:11:00;;;;;;;23.48;17.35;;;;;;;;;;5047832;28;20032;-74
2021/11/18 10:13:49;;;;;;;24.35;19.50;;;;;;;;;;5051893;28;20060;-81
2021/11/18 10:16:15;;;;;;;23.75;18.20;;;;;;;;;;5042858;28;20029;-77
2021/11/18 10:18:46;;;;;;;25.50;18.52;;;;;;;;;;5044237;28;20091;-78
2021/11/18 10:21:15;;;;;;;23.48;18.98;;;;;;;;;;5031485;28;20061;-78
2021/11/18 10:23:41;;;;;;;24.17;17.77;;;;;;;;;;5031685;28;20082;-79
2021/11/18 10:26:28;;;;;;;29.05;22.23;;;;;;;;;;5032073;28;20029;-77
2021/11/18 10:29:00;;;;;;;29.25;21.92;;;;;;;;;;5050031;28;20036;-78
2021/11/18 10:31:39;;;;;;;26.65;20.67;;;;;;;;;;5050484;28;20029;-74
2021/11/18 10:34:11;;;;;;;29.30;22.90;;;;;;;;;;5051327;28;20047;-76
2021/11/18 10:36:48;;;;;;;30.52;19.33;;;;;;;;;;5051104;28;20048;-75
2021/11/18 10:39:33;;;;;;;30.55;22.30;;;;;;;;;;5034234;28;20025;-77
2021/11/18 10:41:59;;;;;;;;;;;;;;;;;;5051622;28;20037;-78
2021/11/18 10:44:31;;;;;;;35.45;25.10;;;;;;;;;;5050140;28;20300;-76
2021/11/18 10:47:00;;;;;;;30.67;21.17;;;;;;;;;;5050642;28;20032;-76
2021/11/18 10:49:34;;;;;;;29.58;20.80;;;;;;;;;;5049951;28;20380;-76
2021/11/18 10:52:02;;;;;;;;;;;;;;;;;;5051911;28;20092;-80
2021/11/18 10:54:40;;;;;;;26.08;18.42;;;;;;;;;;5050875;28;19909;-79
2021/11/18 10:57:08;;;;;;;30.45;22.77;;;;;;;;;;5050958;28;20037;-70
2021/11/18 10:59:40;;;;;;;29.38;22.15;;;;;;;;;;5051383;28;20032;-75
2021/11/18 11:02:25;;;;;;;32.20;23.90;;;;;;;;;;5050978;28;20519;-75
2021/11/18 11:04:51;;;;;;;;;;;;;;;;;;5051308;28;20025;-83
2021/11/18 11:07:30;;;;;;;28.63;20.25;;;;;;;;;;5050607;28;20283;-78
2021/11/18 11:09:56;;;;;;;29.08;21.27;;;;;;;;;;5049683;28;20032;-81
2021/11/18 11:12:33;;;;;;;32.00;23.38;;;;;;;;;;5050459;28;20480;-77
2021/11/18 11:15:12;;;;;;;32.42;24.23;;;;;;;;;;5050615;28;20025;-77
2021/11/18 11:17:45;;;;;;;36.38;26.70;;;;;;;;;;5051079;28;20032;-78
2021/11/18 11:20:23;;;;;;;31.63;23.58;;;;;;;;;;5050945;28;20033;-78
2021/11/18 11:23:08;;;;;;;31.45;22.55;;;;;;;;;;5050749;28;20504;-77
2021/11/18 11:25:53;;;;;;;32.78;20.20;;;;;;;;;;5049861;28;20025;-79
2021/11/18 11:28:37;;;;;;;34.80;24.42;;;;;;;;;;5048308;28;20028;-76
2021/11/18 11:31:18;;;;;;;33.33;22.65;;;;;;;;;;5050973;28;20542;-76
2021/11/18 11:33:47;;;;;;;34.67;26.08;;;;;;;;;;5050999;28;20337;-76
2021/11/18 11:36:20;;;;;;;37.30;26.65;;;;;;;;;;5051642;28;20025;-82
2021/11/18 11:38:52;;;;;;;36.40;25.38;;;;;;;;;;5050914;28;20033;-73
2021/11/18 11:41:37;;;;;;;37.35;25.05;;;;;;;;;;5050754;28;20119;-80
2021/11/18 11:44:03;;;;;;;31.92;22.90;;;;;;;;;;5048672;28;20029;-77
2021/11/18 11:46:58;;;;;;;32.42;22.70;;;;;;;;;;5050569;28;20060;-81
2021/11/18 11:49:43;;;;;;;37.17;27.10;;;;;;;;;;5041793;28;20045;-77
2021/11/18 11:52:28;;;;;;;33.72;24.60;;;;;;;;;;5054264;28;20114;-79
2021/11/18 11:54:57;;;;;;;30.65;22.63;;;;;;;;;;5054929;28;20025;-84
2021/11/18 11:57:33;;;;;;;31.02;23.85;;;;;;;;;;5054347;28;20787;-77
2021/11/18 12:00:18;;;;;;;34.05;23.02;;;;;;;;;;5052638;28;20032;-78
2021/11/18 12:02:44;;;;;;;;;;;;;;;;;;5042679;28;20188;-76
2021/11/18 12:05:15;;;;;;;43.55;22.98;;;;;;;;;;5035257;28;19996;-83
2021/11/18 12:07:53;;;;;;;30.05;19.20;;;;;;;;;;5053938;28;20036;-78
2021/11/18 12:10:19;;;;;;;33.17;21.92;;;;;;;;;;5053054;28;20495;-80
2021/11/18 12:13:01;;;;;;;31.88;20.52;;;;;;;;;;5052855;28;20085;-81
2021/11/18 12:15:27;;;;;;;31.48;21.27;;;;;;;;;;5054139;28;20033;-81
2021/11/18 12:18:00;;;;;;;34.28;22.15;;;;;;;;;;5053115;28;20104;-77
2021/11/18 12:20:29;;;;;;;33.13;23.17;;;;;;;;;;5054024;28;20033;-79
2021/11/18 12:23:00;;;;;;;36.35;22.88;;;;;;;;;;5051446;28;20053;-79
2021/11/18 12:25:46;;;;;;;33.15;22.27;;;;;;;;;;5037326;28;20128;-76
2021/11/18 12:28:12;;;;;;;32.47;22.40;;;;;;;;;;5052247;28;20028;-74
2021/11/18 12:30:47;;;;;;;33.67;23.63;;;;;;;;;;5052649;28;20484;-78
2021/11/18 12:33:19;;;;;;;34.35;22.15;;;;;;;;;;5053673;28;20480;-80
2021/11/18 12:36:05;;;;;;;33.70;23.48;;;;;;;;;;5053171;28;20032;-69
2021/11/18 12:38:37;;;;;;;33.25;22.40;;;;;;;;;;5065953;28;20041;-78
2021/11/18 12:41:22;;;;;;;31.27;22.65;;;;;;;;;;5038485;28;20074;-76
2021/11/18 12:43:51;;;;;;;38.60;25.42;;;;;;;;;;5052634;28;20056;-80
2021/11/18 12:46:36;;;;;;;33.72;22.77;;;;;;;;;;5053880;28;20100;-81
2021/11/18 12:49:05;;;;;;;30.83;22.45;;;;;;;;;;5052946;28;20031;-81
2021/11/18 12:51:50;;;;;;;33.65;22.38;;;;;;;;;;5054169;28;20388;-77
2021/11/18 12:54:35;;;;;;;32.35;22.13;;;;;;;;;;5053344;28;20025;-76
2021/11/18 12:57:11;;;;;;;27.88;19.27;;;;;;;;;;5054900;28;20082;-78
2021/11/18 12:59:39;;;;;;;28.45;19.60;;;;;;;;;;5054663;28;20021;-73
2021/11/18 13:02:09;;;;;;;30.38;20.85;;;;;;;;;;5053303;28;20036;-79
2021/11/18 13:04:35;;;;;;;33.65;23.10;;;;;;;;;;5053902;28;20033;-77
2021/11/18 13:07:02;;;;;;;31.70;21.95;;;;;;;;;;5045513;28;20037;-74
2021/11/18 13:09:48;;;;;;;36.13;24.38;;;;;;;;;;5053633;28;20431;-75
2021/11/18 13:12:27;;;;;;;33.33;23.88;;;;;;;;;;5047537;28;20037;-77
2021/11/18 13:15:01;;;;;;;33.45;22.38;;;;;;;;;;5038812;28;20025;-76
2021/11/18 13:17:33;;;;;;;29.88;22.58;;;;;;;;;;5049857;28;20025;-80
2021/11/18 13:20:18;;;;;;;34.17;22.88;;;;;;;;;;5054342;28;20527;-74
2021/11/18 13:22:44;;;;;;;;;;;;;;;;;;5052198;28;20075;-77
2021/11/18 13:25:13;;;;;;;30.42;19.95;;;;;;;;;;5053440;28;19904;-81
2021/11/18 13:27:59;;;;;;;27.13;19.88;;;;;;;;;;5053887;28;20104;-80
2021/11/18 13:30:25;;;;;;;31.83;20.75;;;;;;;;;;5053475;28;20403;-78
2021/11/18 13:32:54;;;;;;;24.02;17.55;;;;;;;;;;5054193;28;20021;-80
2021/11/18 13:35:25;;;;;;;27.42;19.95;;;;;;;;;;5053050;28;20037;-78
2021/11/18 13:38:03;;;;;;;27.25;18.67;;;;;;;;;;5045899;28;20475;-77
2021/11/18 13:40:29;;;;;;;25.17;18.40;;;;;;;;;;5053274;28;20036;-77
2021/11/18 13:42:59;;;;;;;26.20;17.38;;;;;;;;;;5053706;28;20029;-81
2021/11/18 13:45:29;;;;;;;25.25;18.05;;;;;;;;;;5052934;28;20029;-76
2021/11/18 13:47:55;;;;;;;27.83;16.85;;;;;;;;;;5049828;28;20040;-75
2021/11/18 13:50:32;;;;;;;29.38;20.60;;;;;;;;;;5032229;28;20072;-75
2021/11/18 13:53:05;;;;;;;27.42;19.15;;;;;;;;;;5033683;28;20022;-75
2021/11/18 13:55:35;;;;;;;26.17;19.10;;;;;;;;;;5033534;28;20603;-82
2021/11/18 13:58:10;;;;;;;28.65;20.58;;;;;;;;;;5032019;28;20477;-78
2021/11/18 14:00:37;;;;;;;27.73;20.60;;;;;;;;;;5033257;28;20032;-78
2021/11/18 14:03:03;;;;;;;30.67;21.73;;;;;;;;;;5033013;28;20033;-77
2021/11/18 14:05:48;;;;;;;31.90;18.75;;;;;;;;;;5032909;28;20029;-77
2021/11/18 14:08:28;;;;;;;26.98;19.55;;;;;;;;;;5046925;28;20043;-80
2021/11/18 14:10:58;;;;;;;26.20;20.23;;;;;;;;;;5053006;28;20058;-78
2021/11/18 14:13:43;;;;;;;28.73;21.85;;;;;;;;;;5043932;28;20369;-77
2021/11/18 14:16:12;;;;;;;30.75;22.63;;;;;;;;;;5032583;28;20029;-79
2021/11/18 14:18:58;;;;;;;31.73;21.25;;;;;;;;;;5034515;28;20065;-77
2021/11/18 14:21:42;;;;;;;32.97;21.83;;;;;;;;;;5052295;28;20057;-80
2021/11/18 14:24:08;;;;;;;;;;;;;;;;;;5051807;28;20045;-81
2021/11/18 14:26:53;;;;;;;33.28;21.13;;;;;;;;;;5051301;28;19958;-78
2021/11/18 14:29:25;;;;;;;31.15;19.27;;;;;;;;;;5052143;28;20377;-79
2021/11/18 14:31:53;;;;;;;31.83;22.13;;;;;;;;;;5052576;28;20036;-73